Seward, NE

3:03 PM CDT on July 01, 2015 (GMT -0500)
Suhr Lichty Insurance Downtown | | Change Station
CLOSE
Current Station
Personal Weather Station
Location: Seward, NE
Elevation: 1493 ft
Nearby Weather Stations

Elev 1493 ft 40.91 °N, 97.10 °W | Updated 8 minutes ago

Partly Cloudy
Partly Cloudy
87.5 °F
Feels Like 94 °F
N
2.0
Wind Variable Wind from ESE
Gusts 7.0 mph

Today
High -- | Low -- °F
--% Chance of Precip.
Yesterday
High -- | Low -- °F
Precip. -- in
6:00 AM 9:04 PM
Full, 100% visible
Pressure 29.82 in
Visibility 9.0 miles
Clouds Scattered Clouds 3600 ft
Heat Index 94 °F
Dew Point 72 °F
Humidity 60%
Rainfall 0.67 in
Snow Depth Not available.
UV 9 out of 12
Pollen 1.60 out of 12
Air Quality Not available.
Flu Activity Not available.
METAR KLNK 011954Z 10006KT 9SM SCT036 30/21 A2986 RMK AO2 SLP097 T03000211

More Conditions Fewer Conditions

Pressure 29.82 in
Visibility 9.0 miles
Clouds Scattered Clouds 3600 ft
Heat Index 94 °F
Dew Point 72 °F
Humidity 60%
Rainfall 0.67 in
Snow Depth Not available.
UV 9 out of 12
Pollen 1.60 out of 12
Air Quality Not available.
Flu Activity Not available.
METAR KLNK 011954Z 10006KT 9SM SCT036 30/21 A2986 RMK AO2 SLP097 T03000211

More Conditions Fewer Conditions

10-Day Weather Forecast

×

Almanac

Astronomy

Jul. 01, 2015 Rise Set
Actual Time
Civil Twilight
Nautical Twilight
Astronomical Twilight
Moon
Length of Visible Light
Length of Day
Tomorrow will be .
, % of the Moon is Illuminated

Today's Extremes

State Highs State Lows

Community

WunderPhotos

Upload Photos

1,834,269 photos uploaded!

WunderBlogs® & News

Nearby

Air Quality

  Air Quality AQ Index Pollutant
Not available.

Snow Depth

Station Depth Elevation

Earthquake Activity

City Distance Mag. Time & Date
Minimum magnitude displayed is 2.5.

Coastal Water Temperatures

Place Temperature

Stations

Nearby Weather Stations

Station Location Temp. Windchill Dew Point Humidity Wind Precip. Elev Updated Type